Time;durP1;ratioP1;P1;durP2;ratioP2;P2;SDS_P1;SDS_P2;PMS_P1;PMS_P2;Temp;Humidity;BMP_temperature;BMP_pressure;BME280_temperature;BME280_humidity;BME280_pressure;Samples;Min_cycle;Max_cycle;Signal;HPM_P1;HPM_P2
2022/07/22 00:06:15;;;;;;;1.23;1.12;;;17.80;99.90;;;;;;6687570;88;20346;-78
2022/07/22 00:16:16;;;;;;;0.52;0.47;;;17.60;99.90;;;;;;6687350;88;20737;-77
2022/07/22 00:26:17;;;;;;;0.93;0.60;;;17.60;99.90;;;;;;6686409;88;20842;-77
2022/07/22 00:36:18;;;;;;;0.93;0.53;;;17.60;99.90;;;;;;6680327;88;20737;-76
2022/07/22 00:46:19;;;;;;;0.70;0.65;;;17.60;99.90;;;;;;6684574;88;20506;-76
2022/07/22 00:56:20;;;;;;;0.45;0.30;;;17.60;99.90;;;;;;6685826;88;20646;-77
2022/07/22 01:06:20;;;;;;;0.52;0.30;;;17.80;99.90;;;;;;6689105;88;20188;-78
2022/07/22 01:16:24;;;;;;;0.32;0.30;;;17.60;99.90;;;;;;6684442;88;20199;-77
2022/07/22 01:26:25;;;;;;;0.30;0.30;;;17.40;99.90;;;;;;6685648;88;20591;-77
2022/07/22 01:36:25;;;;;;;0.30;0.22;;;17.50;99.90;;;;;;6684250;88;20191;-77
2022/07/22 01:46:26;;;;;;;0.90;0.50;;;17.40;99.90;;;;;;6681328;88;20481;-77
2022/07/22 01:56:27;;;;;;;0.70;0.50;;;17.50;99.90;;;;;;6684866;88;20598;-77
2022/07/22 02:06:27;;;;;;;0.60;0.50;;;17.50;99.90;;;;;;6681298;89;20230;-78
2022/07/22 02:16:28;;;;;;;0.30;0.30;;;17.50;99.90;;;;;;6685185;89;20190;-77
2022/07/22 02:26:28;;;;;;;0.40;0.28;;;17.30;99.90;;;;;;6684573;89;20713;-77
2022/07/22 02:36:29;;;;;;;0.37;0.23;;;17.40;99.90;;;;;;6682365;89;20720;-77
2022/07/22 02:46:30;;;;;;;0.55;0.40;;;17.30;99.90;;;;;;6689949;89;20596;-78
2022/07/22 02:56:31;;;;;;;0.50;0.30;;;17.20;99.90;;;;;;6682604;88;20189;-79
2022/07/22 03:06:31;;;;;;;0.30;0.22;;;17.30;99.90;;;;;;6682037;88;20988;-78
2022/07/22 03:16:32;;;;;;;0.68;0.50;;;17.10;99.90;;;;;;6684046;88;20197;-78
2022/07/22 03:26:32;;;;;;;0.65;0.55;;;17.00;99.90;;;;;;6683904;88;20198;-79
2022/07/22 03:36:33;;;;;;;0.98;0.65;;;17.00;99.90;;;;;;6683645;88;20269;-79
2022/07/22 03:46:33;;;;;;;0.30;0.30;;;17.00;99.90;;;;;;6683553;88;20198;-78
2022/07/22 03:56:34;;;;;;;0.50;0.40;;;17.10;99.90;;;;;;6683927;88;20203;-79
2022/07/22 04:06:34;;;;;;;0.82;0.62;;;17.20;99.90;;;;;;6683562;88;20204;-77
2022/07/22 04:16:35;;;;;;;1.00;0.40;;;17.20;99.90;;;;;;6680083;88;20829;-78
2022/07/22 04:26:36;;;;;;;0.25;0.20;;;17.10;99.90;;;;;;6666551;89;20702;-78
2022/07/22 04:36:36;;;;;;;0.15;0.15;;;17.20;99.90;;;;;;6666596;89;20221;-78
2022/07/22 04:46:37;;;;;;;1.20;0.82;;;17.30;99.90;;;;;;6666312;89;20183;-78
2022/07/22 04:56:37;;;;;;;0.80;0.60;;;17.40;99.90;;;;;;6665864;88;20187;-77
2022/07/22 05:06:38;;;;;;;0.30;0.28;;;17.40;99.90;;;;;;6666149;89;20680;-78
2022/07/22 05:16:39;;;;;;;0.40;0.30;;;17.40;99.90;;;;;;6669670;89;20240;-78
2022/07/22 05:26:40;;;;;;;1.30;0.40;;;17.30;99.90;;;;;;6666018;89;20708;-78
2022/07/22 05:36:41;;;;;;;0.83;0.50;;;17.20;99.90;;;;;;6665966;89;20613;-78
2022/07/22 05:46:41;;;;;;;0.45;0.35;;;17.40;99.90;;;;;;6665348;89;20538;-78
2022/07/22 05:56:42;;;;;;;0.60;0.45;;;17.60;99.90;;;;;;6662121;89;20191;-78
2022/07/22 06:06:42;;;;;;;0.28;0.20;;;17.60;99.90;;;;;;6665344;89;20817;-78
2022/07/22 06:16:43;;;;;;;0.57;0.50;;;18.00;99.90;;;;;;6665158;89;20990;-77
2022/07/22 06:26:44;;;;;;;0.50;0.47;;;18.10;99.90;;;;;;6681880;89;20236;-77
2022/07/22 06:36:44;;;;;;;0.40;0.25;;;18.20;99.90;;;;;;6681606;89;20333;-77
2022/07/22 06:46:45;;;;;;;1.25;1.02;;;18.40;99.90;;;;;;6682631;88;20206;-77
2022/07/22 06:56:45;;;;;;;0.47;0.40;;;18.40;99.90;;;;;;6685476;88;20235;-78
2022/07/22 07:06:46;;;;;;;0.80;0.43;;;18.90;99.90;;;;;;6684452;88;20681;-78
2022/07/22 07:16:46;;;;;;;0.20;0.20;;;18.90;99.90;;;;;;6683947;88;20194;-78
2022/07/22 07:26:47;;;;;;;0.40;0.40;;;18.90;99.90;;;;;;6683952;88;20682;-77
2022/07/22 07:36:47;;;;;;;0.82;0.40;;;19.10;99.90;;;;;;6683735;88;20265;-78
2022/07/22 07:46:48;;;;;;;0.60;0.40;;;19.40;99.90;;;;;;6683840;88;20769;-78
2022/07/22 07:56:49;;;;;;;0.45;0.30;;;19.50;99.90;;;;;;6683811;88;20279;-78
2022/07/22 08:06:49;;;;;;;0.40;0.20;;;19.80;99.90;;;;;;6686965;88;20725;-77
2022/07/22 08:16:50;;;;;;;1.67;1.17;;;20.10;99.90;;;;;;6683332;88;20249;-79
2022/07/22 08:26:50;;;;;;;0.75;0.50;;;20.60;99.90;;;;;;6683354;88;20264;-78
2022/07/22 08:36:51;;;;;;;1.35;0.82;;;21.20;99.90;;;;;;6682366;88;20208;-77
2022/07/22 08:46:52;;;;;;;1.15;0.70;;;21.50;99.90;;;;;;6682272;88;20324;-78
2022/07/22 08:56:52;;;;;;;1.20;0.70;;;22.60;99.90;;;;;;6681575;88;20283;-78
2022/07/22 09:06:53;;;;;;;1.58;0.90;;;24.10;99.90;;;;;;6680713;88;20319;-77
2022/07/22 09:16:54;;;;;;;0.93;0.70;;;24.00;99.90;;;;;;6682708;88;20249;-78
2022/07/22 09:26:55;;;;;;;1.02;0.60;;;24.00;99.90;;;;;;6681896;88;20258;-78
2022/07/22 09:36:58;;;;;;;2.75;1.48;;;24.90;99.90;;;;;;6681646;88;20646;-78
2022/07/22 09:46:58;;;;;;;1.75;1.15;;;24.60;99.90;;;;;;6681452;88;20191;-79
2022/07/22 09:56:59;;;;;;;0.93;0.70;;;24.20;99.90;;;;;;6682691;88;20251;-78
2022/07/22 10:07:01;;;;;;;1.47;0.90;;;24.70;99.90;;;;;;6682173;88;20564;-80
2022/07/22 10:17:02;;;;;;;1.20;0.77;;;24.80;99.90;;;;;;6684207;88;20719;-77
2022/07/22 10:27:03;;;;;;;1.35;0.77;;;24.70;99.90;;;;;;6685702;88;20203;-79
2022/07/22 10:37:03;;;;;;;1.87;1.47;;;24.70;99.90;;;;;;6685045;88;20190;-79
2022/07/22 10:47:04;;;;;;;1.23;0.93;;;25.70;99.90;;;;;;6685367;88;20195;-79
2022/07/22 10:57:05;;;;;;;1.37;1.00;;;26.70;99.90;;;;;;6690517;88;20746;-79
2022/07/22 11:07:06;;;;;;;1.85;0.80;;;28.00;99.00;;;;;;6683356;88;20599;-79
2022/07/22 11:17:13;;;;;;;1.00;0.77;;;28.40;97.30;;;;;;6682441;88;20217;-78
2022/07/22 11:27:16;;;;;;;1.25;1.10;;;28.90;95.30;;;;;;6682390;88;20183;-78
2022/07/22 11:37:19;;;;;;;1.83;1.40;;;28.70;95.00;;;;;;6665805;89;20204;-78
2022/07/22 11:47:20;;;;;;;1.75;1.23;;;29.20;94.50;;;;;;6665556;89;20198;-79
2022/07/22 11:57:20;;;;;;;1.23;0.95;;;29.60;93.50;;;;;;6666306;89;20203;-79
2022/07/22 12:07:21;;;;;;;2.97;1.73;;;30.10;93.80;;;;;;6666562;88;20275;-78
2022/07/22 12:17:27;;;;;;;1.70;1.50;;;30.50;92.20;;;;;;6682269;88;20270;-79
2022/07/22 12:27:29;;;;;;;1.10;0.85;;;30.20;93.20;;;;;;6682551;88;20186;-79
2022/07/22 12:37:33;;;;;;;2.03;1.57;;;29.80;93.50;;;;;;6682504;88;20251;-78
2022/07/22 12:47:55;;;;;;;10.27;1.83;;;29.60;92.70;;;;;;6683838;88;20210;-79
2022/07/22 12:57:56;;;;;;;1.73;1.23;;;29.00;92.70;;;;;;6667734;88;20217;-79
2022/07/22 13:07:57;;;;;;;1.92;1.12;;;29.60;93.40;;;;;;6667402;89;20178;-78
2022/07/22 13:17:57;;;;;;;1.70;1.17;;;29.50;93.40;;;;;;6668590;89;20203;-79
2022/07/22 13:27:58;;;;;;;1.23;0.82;;;29.80;91.50;;;;;;6689744;88;20766;-79
2022/07/22 13:37:58;;;;;;;1.43;0.90;;;29.60;91.90;;;;;;6698408;88;20199;-78
2022/07/22 13:47:59;;;;;;;1.60;1.00;;;30.10;92.40;;;;;;6705805;88;20232;-78
2022/07/22 13:58:00;;;;;;;1.62;1.00;;;29.70;91.60;;;;;;6703007;88;20689;-78
2022/07/22 14:08:00;;;;;;;1.33;0.90;;;29.40;92.80;;;;;;6702197;88;20222;-78
2022/07/22 14:18:01;;;;;;;1.95;1.00;;;29.20;92.60;;;;;;6701749;88;20199;-78
2022/07/22 14:28:01;;;;;;;1.27;0.70;;;29.00;92.90;;;;;;6702465;88;20652;-79
2022/07/22 14:38:02;;;;;;;1.10;0.60;;;28.60;92.90;;;;;;6702229;88;20808;-78
2022/07/22 14:48:03;;;;;;;1.13;0.70;;;28.40;94.50;;;;;;6700910;88;20180;-78
2022/07/22 14:58:03;;;;;;;1.17;0.75;;;28.50;94.10;;;;;;6706746;88;20280;-78
2022/07/22 15:08:04;;;;;;;1.17;0.88;;;28.40;94.30;;;;;;6703448;88;20182;-79
2022/07/22 15:18:05;;;;;;;1.17;0.80;;;28.70;94.60;;;;;;6703931;88;20185;-78
2022/07/22 15:28:06;;;;;;;1.27;0.90;;;28.30;94.70;;;;;;6704384;88;20673;-79
2022/07/22 15:38:06;;;;;;;1.62;1.02;;;28.00;94.80;;;;;;6704591;88;20252;-79
2022/07/22 15:48:07;;;;;;;1.10;0.77;;;28.10;95.30;;;;;;6701378;88;20204;-78
2022/07/22 16:08:27;;;;;;;1.17;0.70;;;27.20;96.50;;;;;;6701074;88;21138;-78
2022/07/22 16:18:27;;;;;;;2.45;1.25;;;27.60;95.30;;;;;;6703563;88;20424;-78
2022/07/22 16:28:28;;;;;;;1.48;0.80;;;26.90;95.90;;;;;;6703775;88;20650;-78
2022/07/22 16:38:28;;;;;;;0.85;0.62;;;26.50;97.20;;;;;;6703697;88;20190;-80
2022/07/22 16:48:29;;;;;;;1.20;0.90;;;26.40;98.00;;;;;;6706722;88;20757;-78
2022/07/22 16:58:32;;;;;;;1.10;0.70;;;26.10;98.70;;;;;;6703828;88;20358;-78
2022/07/22 17:08:32;;;;;;;0.83;0.60;;;25.80;98.60;;;;;;6703828;88;20187;-78
2022/07/22 17:18:35;;;;;;;2.03;0.88;;;25.50;99.90;;;;;;6703716;88;20197;-78
2022/07/22 17:28:36;;;;;;;;;;;25.20;99.90;;;;;;6703269;88;20241;-78
2022/07/22 17:38:37;;;;;;;1.30;0.70;;;24.80;99.90;;;;;;6703116;88;20076;-79
2022/07/22 17:48:38;;;;;;;1.10;0.80;;;24.70;99.90;;;;;;6700195;88;20274;-79
2022/07/22 17:58:40;;;;;;;1.90;0.65;;;24.40;99.90;;;;;;6665822;89;20213;-81
2022/07/22 18:08:40;;;;;;;0.82;0.62;;;24.10;99.90;;;;;;6664697;89;20352;-78
2022/07/22 18:18:41;;;;;;;1.00;0.75;;;24.10;99.90;;;;;;6664939;89;20271;-78
2022/07/22 18:28:41;;;;;;;1.00;0.57;;;23.80;99.90;;;;;;6664665;89;20187;-78
2022/07/22 18:38:42;;;;;;;1.00;0.68;;;23.50;99.90;;;;;;6665306;89;20327;-79
2022/07/22 18:48:42;;;;;;;1.00;0.70;;;23.40;99.90;;;;;;6667355;89;20195;-78
2022/07/22 18:58:43;;;;;;;1.10;0.62;;;23.10;99.90;;;;;;6672099;89;20253;-78
2022/07/22 19:08:43;;;;;;;0.52;0.40;;;22.90;99.90;;;;;;6667029;89;20190;-79
2022/07/22 19:18:44;;;;;;;0.90;0.60;;;22.80;99.90;;;;;;6668547;89;20191;-79
2022/07/22 19:28:44;;;;;;;1.00;0.70;;;22.60;99.90;;;;;;6667092;89;20564;-78
2022/07/22 19:38:45;;;;;;;0.60;0.60;;;22.40;99.90;;;;;;6706880;88;20621;-80
2022/07/22 19:48:47;;;;;;;0.70;0.47;;;22.30;99.90;;;;;;6700545;88;20341;-80
2022/07/22 19:58:47;;;;;;;1.10;0.85;;;22.10;99.90;;;;;;6695704;77;20201;-78
2022/07/22 20:08:48;;;;;;;1.33;0.80;;;22.00;99.90;;;;;;6708723;88;20237;-78
2022/07/22 20:18:48;;;;;;;0.70;0.57;;;21.90;99.90;;;;;;6690049;88;20220;-78
2022/07/22 20:28:49;;;;;;;1.62;0.70;;;21.80;99.90;;;;;;6704203;88;20302;-78
2022/07/22 20:38:49;;;;;;;1.15;0.60;;;21.60;99.90;;;;;;6693021;88;20203;-78
2022/07/22 20:48:50;;;;;;;1.27;0.80;;;21.40;99.90;;;;;;6683611;88;20214;-78
2022/07/22 20:58:50;;;;;;;1.08;0.65;;;21.40;99.90;;;;;;6701547;88;20233;-78
2022/07/22 21:08:51;;;;;;;1.10;0.90;;;21.30;99.90;;;;;;6678318;88;20212;-77
2022/07/22 21:18:51;;;;;;;1.00;0.70;;;21.10;99.90;;;;;;6684540;88;20212;-77
2022/07/22 21:28:52;;;;;;;1.17;0.82;;;21.00;99.90;;;;;;6692050;88;20203;-79
2022/07/22 21:38:53;;;;;;;0.90;0.60;;;20.90;99.90;;;;;;6694920;88;20630;-79
2022/07/22 21:48:53;;;;;;;0.73;0.40;;;20.90;99.90;;;;;;6689755;88;20199;-78
2022/07/22 21:58:55;;;;;;;0.77;0.50;;;20.90;99.90;;;;;;6700834;88;20672;-78
2022/07/22 22:08:56;;;;;;;1.70;0.93;;;20.80;99.90;;;;;;6699869;88;20186;-78
2022/07/22 22:18:56;;;;;;;1.17;0.80;;;20.80;99.90;;;;;;6683322;88;20699;-78
2022/07/22 22:28:57;;;;;;;0.90;0.57;;;20.70;99.90;;;;;;6678804;88;20203;-79
2022/07/22 22:39:00;;;;;;;1.60;0.70;;;20.50;99.90;;;;;;6690942;88;20604;-78
2022/07/22 22:49:01;;;;;;;1.33;1.13;;;20.10;99.90;;;;;;6683864;88;20200;-78
2022/07/22 22:59:02;;;;;;;1.33;0.87;;;20.20;99.90;;;;;;6677580;89;20203;-78
2022/07/22 23:09:02;;;;;;;0.90;0.70;;;20.20;99.90;;;;;;6686417;88;20521;-78
2022/07/22 23:19:03;;;;;;;0.88;0.52;;;20.20;99.90;;;;;;6681225;88;20211;-78
2022/07/22 23:29:03;;;;;;;0.50;0.37;;;20.30;99.90;;;;;;6698672;88;20503;-79
2022/07/22 23:39:04;;;;;;;1.48;0.50;;;20.20;99.90;;;;;;6686977;88;20200;-78
2022/07/22 23:49:07;;;;;;;1.15;0.93;;;20.40;99.90;;;;;;6695095;88;20207;-78
2022/07/22 23:59:08;;;;;;;0.93;0.75;;;20.30;99.90;;;;;;6681714;88;20323;-79
